Terminal Aerodrome Forecast
Issued by NWS

Home | Current Version | Previous Version | Text Only | Print | Product List | Glossary On
Versions: 1 2 3 4 5 6 7 8 9 10 11 12 13
000
FTUS42 KTAE 290200 AAA
TAFECP
TAF AMD
KECP 290240Z 2903/2924 17006KT P6SM OVC003
     FM290900 14003KT 1SM BR OVC005
     FM291600 32005KT P6SM -SHRA BKN015=

USA.gov is the U.S. government's official web portal to all federal, state and local government web resources and services.